Summit Lake, WI

4:45 PM CST on December 22, 2014 (GMT -0600)
KWIGLEAS2 | Change Station
CLOSE
Current Station
Personal Weather Station
Location: GLEASON, WI
Elevation: 1605 ft
Nearby Weather Stations

Elev 1605 ft 45.41 °N, 89.43 °W | Updated 16 seconds ago

Overcast
Overcast
34.3 °F
Feels Like 34 °F
N
0.0
Wind Variable Wind from North
Gusts 0.0 mph

Today
High -- | Low -- °F
--% Chance of Precip.
Yesterday
High -- | Low -- °F
Precip. -- in
7:33 AM 4:17 PM
New Moon, 1% visible
Pressure 29.75 in
Visibility 5.0 miles
Clouds Overcast 700 ft
Windchill 34 °F
Dew Point 34 °F
Humidity 99%
Rainfall 0.00 in
Snow Depth Not available.
UV 0 out of 12
Pollen .10 out of 12
Air Quality Not available.
Flu Activity Not available.
METAR KAIG 222235Z AUTO 10011G16KT 5SM BR OVC007 00/M01 A2975 RMK AO2 T10011008

More Conditions Fewer Conditions

Pressure 29.75 in
Visibility 5.0 miles
Clouds Overcast 700 ft
Windchill 34 °F
Dew Point 34 °F
Humidity 99%
Rainfall 0.00 in
Snow Depth Not available.
UV 0 out of 12
Pollen .10 out of 12
Air Quality Not available.
Flu Activity Not available.
METAR KAIG 222235Z AUTO 10011G16KT 5SM BR OVC007 00/M01 A2975 RMK AO2 T10011008

More Conditions Fewer Conditions

10-Day Weather Forecast

Almanac

Astronomy

Dec. 22, 2014 Rise Set
Actual Time
Civil Twilight
Nautical Twilight
Astronomical Twilight
Moon
Length of Visible Light
Length of Day
Tomorrow will be .
, % of the Moon is Illuminated

Today's Extremes

State Highs State Lows

Community

WunderPhotos

Upload Photos

1,779,695 photos uploaded!

WunderBlogs® & News

Nearby

Air Quality

  Air Quality AQ Index Pollutant
Not available.

Snow Depth

Station Depth Elevation

Earthquake Activity

City Distance Mag. Time & Date
Minimum magnitude displayed is 2.5.

Coastal Water Temperatures

Place Temperature

Nearby Weather Stations